Time;durP1;ratioP1;P1;durP2;ratioP2;P2;SDS_P1;SDS_P2;PMS_P1;PMS_P2;Temp;Humidity;BMP_temperature;BMP_pressure;BME280_temperature;BME280_humidity;BME280_pressure;Samples;Min_cycle;Max_cycle;Signal;HPM_P1;HPM_P2
2022/11/10 00:01:08;;;;;;;8.10;1.75;;;;;;;10.28;59.81;100854.22;4972447;28;20047;-70
2022/11/10 00:03:37;;;;;;;4.65;1.95;;;;;;;10.17;60.62;100846.41;4972599;28;20051;-69
2022/11/10 00:06:06;;;;;;;6.55;1.83;;;;;;;10.19;60.62;100852.44;4972220;28;20050;-68
2022/11/10 00:08:32;;;;;;;8.60;1.92;;;;;;;10.07;61.29;100842.97;4969825;28;20408;-68
2022/11/10 00:11:06;;;;;;;8.25;1.92;;;;;;;10.20;61.19;100848.75;4972713;28;20046;-68
2022/11/10 00:16:59;;;;;;;4.80;1.60;;;;;;;10.05;61.64;100851.16;4972443;28;20549;-70
2022/11/10 00:19:06;;;;;;;6.18;1.85;;;;;;;10.19;61.37;100863.16;4972225;28;20070;-69
2022/11/10 00:21:33;;;;;;;3.40;1.50;;;;;;;10.13;61.53;100859.28;4971540;28;20054;-70
2022/11/10 00:23:59;;;;;;;10.15;1.90;;;;;;;10.14;61.63;100862.81;4972292;28;20074;-69
2022/11/10 00:26:26;;;;;;;5.95;1.90;;;;;;;10.02;61.71;100871.06;4972042;28;20065;-70
2022/11/10 00:28:53;;;;;;;8.65;2.50;;;;;;;10.10;61.69;100869.44;4971581;28;20051;-70
2022/11/10 00:31:20;;;;;;;11.57;2.40;;;;;;;10.21;61.33;100880.78;4972790;28;20061;-69
2022/11/10 00:33:46;;;;;;;8.10;1.90;;;;;;;10.42;60.53;100869.75;4972262;28;20384;-69
2022/11/10 00:36:13;;;;;;;7.63;1.83;;;;;;;10.23;61.23;100873.41;4964473;28;20139;-69
2022/11/10 00:38:39;;;;;;;4.70;1.75;;;;;;;10.18;61.20;100878.41;4985691;28;20042;-68
2022/11/10 00:41:06;;;;;;;7.82;2.28;;;;;;;10.44;60.42;100874.94;4972115;28;20046;-70
2022/11/10 00:43:32;;;;;;;4.45;1.60;;;;;;;10.28;60.67;100876.50;4971830;28;20455;-70
2022/11/10 00:46:00;;;;;;;4.43;1.50;;;;;;;10.27;60.39;100882.03;4971889;28;20518;-70
2022/11/10 00:48:26;;;;;;;8.55;1.67;;;;;;;10.20;60.49;100879.13;4971343;28;20046;-70
2022/11/10 00:50:52;;;;;;;14.77;2.05;;;;;;;10.39;59.97;100878.09;4971205;28;20089;-70
2022/11/10 00:53:19;;;;;;;8.65;1.75;;;;;;;10.38;59.69;100881.78;4971859;28;20055;-69
2022/11/10 00:55:47;;;;;;;7.93;2.00;;;;;;;10.48;59.14;100885.22;4971159;28;20404;-71
2022/11/10 00:58:14;;;;;;;11.43;1.92;;;;;;;10.42;59.25;100882.31;4970951;28;20072;-69
2022/11/10 01:00:41;;;;;;;11.07;1.80;;;;;;;10.31;59.50;100901.34;4971941;28;20451;-69
2022/11/10 01:03:12;;;;;;;9.70;2.38;;;;;;;10.28;59.64;100897.94;4971920;28;20047;-69
2022/11/10 01:05:39;;;;;;;6.82;1.60;;;;;;;10.43;58.91;100898.22;4970819;28;20133;-69
2022/11/10 01:08:06;;;;;;;7.88;1.45;;;;;;;10.37;59.23;100896.16;4971637;28;20042;-69
2022/11/10 01:10:33;;;;;;;18.67;1.70;;;;;;;10.32;59.22;100900.31;4971453;28;20053;-71
2022/11/10 01:12:59;;;;;;;8.15;1.95;;;;;;;10.50;58.93;100904.69;4971091;28;20117;-69
2022/11/10 01:15:26;;;;;;;9.13;1.88;;;;;;;10.36;59.10;100899.84;4971124;28;20066;-69
2022/11/10 01:17:55;;;;;;;14.57;1.83;;;;;;;10.21;59.63;100896.03;4970939;28;20050;-69
2022/11/10 01:20:22;;;;;;;6.90;1.90;;;;;;;10.39;59.11;100907.59;4971288;28;20073;-69
2022/11/10 01:22:49;;;;;;;7.82;2.38;;;;;;;10.26;59.38;100904.44;4964867;28;20043;-70
2022/11/10 01:25:16;;;;;;;6.70;2.10;;;;;;;10.28;59.42;100902.47;4970884;28;20050;-69
2022/11/10 01:27:42;;;;;;;10.52;1.73;;;;;;;10.23;59.54;100910.13;4971818;28;20047;-70
2022/11/10 01:30:09;;;;;;;10.98;1.92;;;;;;;10.18;59.68;100912.44;4970853;28;20058;-69
2022/11/10 01:32:35;;;;;;;5.18;1.85;;;;;;;10.22;59.86;100916.50;4970358;28;20050;-70
2022/11/10 01:35:02;;;;;;;10.10;2.08;;;;;;;10.12;60.30;100918.41;4971310;28;20050;-70
2022/11/10 01:37:28;;;;;;;9.43;2.05;;;;;;;10.22;60.15;100919.16;4971496;28;20053;-68
2022/11/10 01:39:55;;;;;;;5.82;1.65;;;;;;;10.08;60.49;100928.59;4971445;28;20057;-69
2022/11/10 01:42:43;;;;;;;6.35;1.80;;;;;;;10.20;60.16;100932.75;4971676;28;20046;-68
2022/11/10 01:45:21;;;;;;;5.63;1.73;;;;;;;9.98;60.84;100931.31;4971081;28;20043;-68
2022/11/10 01:47:54;;;;;;;6.32;1.67;;;;;;;9.98;60.76;100934.00;4970445;28;20057;-68
2022/11/10 01:54:14;;;;;;;11.02;1.73;;;;;;;9.98;60.91;100944.72;4970964;28;20411;-70
2022/11/10 01:56:49;;;;;;;8.50;1.95;;;;;;;10.03;60.81;100944.28;4970695;28;20043;-70
2022/11/10 01:59:23;;;;;;;7.05;1.67;;;;;;;10.08;60.46;100950.03;4970386;28;20070;-69
2022/11/10 02:01:52;;;;;;;11.50;1.95;;;;;;;10.00;60.74;100952.63;4970208;28;20050;-68
2022/11/10 02:04:20;;;;;;;9.98;1.75;;;;;;;9.94;61.06;100959.44;4970366;28;20068;-70
2022/11/10 02:07:24;;;;;;;8.07;1.95;;;;;;;10.02;60.58;100956.81;4969683;28;20047;-70
2022/11/10 02:09:52;;;;;;;8.15;1.98;;;;;;;10.03;60.65;100960.38;4973314;28;20047;-69
2022/11/10 02:12:35;;;;;;;10.85;1.80;;;;;;;9.92;60.70;100958.72;4978110;28;20051;-70
2022/11/10 02:15:09;;;;;;;8.23;2.15;;;;;;;10.11;60.39;100957.78;4974589;28;20053;-69
2022/11/10 02:17:36;;;;;;;10.52;1.60;;;;;;;9.88;61.18;100965.38;4974133;28;20070;-69
2022/11/10 02:20:06;;;;;;;11.63;1.25;;;;;;;10.02;60.62;100970.22;4974942;28;20472;-68
2022/11/10 02:22:33;;;;;;;11.03;1.57;;;;;;;10.12;60.17;100972.00;4974660;28;20058;-69
2022/11/10 02:24:59;;;;;;;8.07;1.92;;;;;;;10.11;59.91;100976.53;4973766;28;20047;-69
2022/11/10 02:27:26;;;;;;;7.93;1.75;;;;;;;10.12;59.89;100972.84;4974412;28;20054;-70
2022/11/10 02:29:52;;;;;;;10.40;1.75;;;;;;;9.98;60.12;100976.88;4973656;28;20051;-70
2022/11/10 02:32:19;;;;;;;13.68;2.38;;;;;;;10.12;59.80;100982.75;4975139;28;20055;-69
2022/11/10 02:34:45;;;;;;;11.93;2.30;;;;;;;10.11;59.96;100983.75;4974206;28;20051;-69
2022/11/10 02:37:12;;;;;;;8.25;1.83;;;;;;;10.29;59.30;100984.59;4974215;28;20050;-70
2022/11/10 02:39:38;;;;;;;9.18;1.90;;;;;;;10.10;59.76;100982.03;4973862;28;20050;-69
2022/11/10 02:42:09;;;;;;;10.45;1.70;;;;;;;10.11;59.40;100981.91;4973815;28;20514;-69
2022/11/10 02:44:39;;;;;;;14.40;2.30;;;;;;;10.18;59.25;100988.34;4973919;28;20051;-69
2022/11/10 02:47:06;;;;;;;5.40;1.45;;;;;;;10.15;59.38;100988.63;4974186;28;20513;-69
2022/11/10 02:49:32;;;;;;;9.63;1.75;;;;;;;10.22;58.94;100989.72;4974180;28;20047;-69
2022/11/10 02:51:59;;;;;;;8.93;2.15;;;;;;;10.13;59.49;100987.97;4973659;28;20380;-69
2022/11/10 02:54:25;;;;;;;11.05;2.17;;;;;;;10.12;59.48;100993.47;4973868;28;20051;-69
2022/11/10 02:56:52;;;;;;;15.23;2.38;;;;;;;10.09;59.43;100997.28;4973527;28;20066;-69
2022/11/10 02:59:18;;;;;;;15.75;1.90;;;;;;;10.10;59.22;101004.34;4972898;28;20054;-68
2022/11/10 03:01:45;;;;;;;11.07;1.67;;;;;;;10.11;59.16;100999.81;4973706;28;20396;-70
2022/11/10 03:04:11;;;;;;;9.55;2.10;;;;;;;10.20;58.88;101001.59;4973695;28;20055;-70
2022/11/10 03:06:38;;;;;;;8.65;2.30;;;;;;;9.93;59.73;101011.34;4973260;28;20042;-70
2022/11/10 03:09:04;;;;;;;6.68;1.70;;;;;;;10.23;58.77;101006.66;4973562;28;20470;-69
2022/11/10 03:11:31;;;;;;;10.10;1.83;;;;;;;10.15;58.96;101010.09;4971380;28;20051;-71
2022/11/10 03:13:58;;;;;;;12.70;1.90;;;;;;;10.18;58.83;101019.69;4972876;28;20078;-70
2022/11/10 03:16:28;;;;;;;12.93;1.80;;;;;;;9.99;59.40;101021.47;4973475;28;20065;-69
2022/11/10 03:18:54;;;;;;;10.02;1.92;;;;;;;10.23;58.47;101033.47;4973019;28;20042;-69
2022/11/10 03:21:21;;;;;;;6.50;1.67;;;;;;;10.20;58.68;101033.75;4972909;28;20046;-70
2022/11/10 03:23:47;;;;;;;12.63;1.80;;;;;;;10.02;59.31;101031.88;4973820;28;20054;-69
2022/11/10 03:26:14;;;;;;;12.68;2.00;;;;;;;10.19;58.83;101042.81;4973094;28;20059;-69
2022/11/10 03:28:40;;;;;;;13.27;1.88;;;;;;;9.96;59.40;101051.25;4973384;28;20392;-69
2022/11/10 03:31:06;;;;;;;11.38;2.15;;;;;;;10.15;59.11;101052.97;4974320;28;20047;-69
2022/11/10 03:33:34;;;;;;;15.02;2.50;;;;;;;10.09;59.08;101058.09;4972924;28;20042;-69
2022/11/10 03:36:00;;;;;;;10.30;2.05;;;;;;;10.14;58.96;101066.56;4972782;28;20066;-70
2022/11/10 03:38:27;;;;;;;11.55;1.88;;;;;;;10.03;59.21;101071.13;4973460;28;20467;-69
2022/11/10 03:40:53;;;;;;;12.70;1.75;;;;;;;10.00;59.27;101068.72;4973221;28;20062;-70
2022/11/10 03:43:40;;;;;;;10.60;2.85;;;;;;;10.08;59.08;101069.81;4972200;28;20050;-69
2022/11/10 03:46:07;;;;;;;8.63;2.20;;;;;;;10.07;59.11;101073.50;4973079;28;20050;-69
2022/11/10 03:48:33;;;;;;;16.30;2.40;;;;;;;9.85;59.68;101072.03;4972933;28;20043;-68
2022/11/10 03:51:00;;;;;;;11.45;2.08;;;;;;;9.74;59.95;101075.72;4973059;28;20042;-69
2022/11/10 03:53:26;;;;;;;7.57;1.85;;;;;;;9.82;59.84;101075.88;4972903;28;20057;-70
2022/11/10 03:55:53;;;;;;;14.05;2.45;;;;;;;9.82;59.88;101083.03;4972909;28;20051;-70
2022/11/10 03:58:19;;;;;;;8.40;1.88;;;;;;;9.85;59.89;101085.41;4972863;28;20057;-70
2022/11/10 04:00:46;;;;;;;13.13;2.45;;;;;;;9.85;59.62;101088.94;4972583;28;20053;-70
2022/11/10 04:03:13;;;;;;;8.80;2.17;;;;;;;9.61;60.47;101092.13;4972708;28;20061;-69
2022/11/10 04:11:09;;;;;;;12.18;1.65;;;;;;;9.63;60.47;101095.50;4972752;28;20046;-69
2022/11/10 04:16:21;;;;;;;15.52;1.80;;;;;;;9.69;60.57;101107.50;4972094;28;20591;-69
2022/11/10 04:18:47;;;;;;;7.88;2.35;;;;;;;9.55;61.05;101111.47;4972227;28;20513;-69
2022/11/10 04:21:14;;;;;;;12.25;2.45;;;;;;;9.56;60.89;101107.78;4971627;28;20514;-70
2022/11/10 04:23:40;;;;;;;16.58;2.40;;;;;;;9.65;60.60;101119.50;4972697;28;20054;-68
2022/11/10 04:26:27;;;;;;;11.45;2.45;;;;;;;9.63;60.55;101118.78;4972427;28;20053;-70
2022/11/10 04:28:56;;;;;;;10.93;2.42;;;;;;;9.64;60.62;101118.63;4971297;28;20050;-69
2022/11/10 04:31:24;;;;;;;10.95;2.40;;;;;;;9.58;60.79;101132.59;4971583;28;20057;-68
2022/11/10 04:33:51;;;;;;;14.50;2.30;;;;;;;9.64;60.79;101132.00;4971707;28;20046;-68
2022/11/10 04:36:20;;;;;;;9.60;1.60;;;;;;;9.65;60.77;101140.91;4971966;28;20046;-70
2022/11/10 04:38:47;;;;;;;9.25;2.28;;;;;;;9.30;61.78;101142.34;4972115;28;20042;-70
2022/11/10 04:41:14;;;;;;;19.08;2.30;;;;;;;9.54;61.46;101145.44;4972066;28;20058;-70
2022/11/10 04:43:41;;;;;;;11.93;2.22;;;;;;;9.45;61.56;101145.44;4973152;28;20050;-69
2022/11/10 04:46:15;;;;;;;10.90;2.58;;;;;;;9.51;61.25;101142.22;4972402;28;20454;-69
2022/11/10 04:48:42;;;;;;;18.58;2.42;;;;;;;9.55;61.12;101143.59;4963411;28;20054;-69
2022/11/10 04:51:08;;;;;;;9.80;2.42;;;;;;;9.46;61.57;101141.78;4971007;28;20496;-69
2022/11/10 04:53:35;;;;;;;12.02;2.33;;;;;;;9.50;61.25;101146.69;4971702;28;20049;-70
2022/11/10 04:56:02;;;;;;;9.95;2.05;;;;;;;9.40;61.44;101150.38;4970902;28;20043;-69
2022/11/10 04:58:28;;;;;;;12.23;2.25;;;;;;;9.27;61.81;101148.00;4972033;28;20058;-69
2022/11/10 05:00:55;;;;;;;13.80;2.58;;;;;;;9.32;61.85;101146.56;4971539;28;20046;-67
2022/11/10 05:03:21;;;;;;;11.25;1.95;;;;;;;9.21;62.09;101152.03;4972043;28;20491;-68
2022/11/10 05:05:48;;;;;;;9.88;2.13;;;;;;;9.35;61.86;101148.13;4971885;28;20062;-68
2022/11/10 05:08:15;;;;;;;16.75;2.83;;;;;;;9.21;62.17;101159.22;4971309;28;20422;-70
2022/11/10 05:10:42;;;;;;;12.00;2.50;;;;;;;9.01;62.87;101161.88;4971346;28;20046;-71
2022/11/10 05:13:09;;;;;;;12.32;2.38;;;;;;;9.23;62.25;101167.94;4971771;28;20054;-70
2022/11/10 05:15:35;;;;;;;9.93;2.00;;;;;;;9.30;61.94;101164.63;4972028;28;20049;-70
2022/11/10 05:18:02;;;;;;;10.88;2.78;;;;;;;9.25;62.23;101163.34;4971605;28;20058;-70
2022/11/10 05:20:28;;;;;;;13.98;2.10;;;;;;;9.18;61.99;101175.56;4971810;28;20495;-70
2022/11/10 05:25:41;;;;;;;13.30;2.58;;;;;;;9.18;62.35;101180.94;4965839;28;20046;-69
2022/11/10 05:28:09;;;;;;;12.35;2.75;;;;;;;9.22;62.38;101190.38;4971065;28;20069;-69
2022/11/10 05:30:37;;;;;;;13.25;2.88;;;;;;;9.24;62.15;101193.78;4971180;28;20046;-68
2022/11/10 05:33:04;;;;;;;12.85;2.38;;;;;;;9.28;62.20;101187.16;4970969;28;20050;-70
2022/11/10 05:35:31;;;;;;;8.15;1.90;;;;;;;9.24;62.42;101201.81;4971802;28;20486;-69
2022/11/10 05:37:58;;;;;;;13.57;2.67;;;;;;;9.13;62.53;101209.94;4970616;28;20058;-70
2022/11/10 05:40:24;;;;;;;11.95;2.55;;;;;;;9.14;62.61;101208.97;4970974;28;20057;-70
2022/11/10 05:42:51;;;;;;;16.48;2.60;;;;;;;9.04;62.94;101220.50;4972218;28;20050;-70
2022/11/10 05:45:24;;;;;;;17.52;3.25;;;;;;;8.95;63.33;101223.97;4974654;28;20054;-69
2022/11/10 05:47:51;;;;;;;15.15;3.47;;;;;;;9.03;63.13;101232.19;4974655;28;20066;-69
2022/11/10 05:50:19;;;;;;;10.30;2.67;;;;;;;9.00;63.13;101237.81;4975218;28;20050;-70
2022/11/10 05:52:49;;;;;;;11.27;3.20;;;;;;;8.93;63.43;101239.34;4975458;28;20054;-70
2022/11/10 05:55:18;;;;;;;13.93;2.65;;;;;;;8.72;64.03;101249.28;4974688;28;20495;-69
2022/11/10 05:57:47;;;;;;;14.18;4.50;;;;;;;8.83;64.00;101252.69;4974880;28;20053;-69
2022/11/10 06:00:20;;;;;;;17.40;5.15;;;;;;;8.99;63.51;101257.53;4974343;28;20070;-70
2022/11/10 06:03:17;;;;;;;15.77;3.53;;;;;;;9.00;63.48;101269.09;4973456;28;20098;-70
2022/11/10 06:05:44;;;;;;;17.67;3.53;;;;;;;8.94;63.59;101269.63;4977941;28;20525;-70
2022/11/10 06:08:11;;;;;;;15.60;3.25;;;;;;;8.93;63.50;101271.47;4974769;28;20047;-69
2022/11/10 06:10:38;;;;;;;24.27;3.47;;;;;;;8.89;63.54;101282.59;4971858;28;20045;-70
2022/11/10 06:13:05;;;;;;;14.43;3.45;;;;;;;8.91;63.71;101281.44;4982412;28;20439;-70
2022/11/10 06:15:32;;;;;;;20.58;3.65;;;;;;;8.93;63.43;101282.16;4974050;28;20054;-70
2022/11/10 06:17:58;;;;;;;14.57;3.58;;;;;;;8.75;64.07;101295.34;4974911;28;20122;-70
2022/11/10 06:20:25;;;;;;;18.52;3.95;;;;;;;8.74;64.22;101300.81;4974976;28;20062;-70
2022/11/10 06:22:59;;;;;;;15.50;3.28;;;;;;;8.97;63.45;101305.00;4974408;28;20046;-70
2022/11/10 06:25:30;;;;;;;16.02;3.70;;;;;;;8.97;63.33;101310.34;4974751;28;20050;-70
2022/11/10 06:27:57;;;;;;;14.40;3.00;;;;;;;8.75;64.13;101314.06;4974672;28;20047;-70
2022/11/10 06:30:23;;;;;;;12.38;2.75;;;;;;;8.82;63.89;101319.72;4974427;28;20055;-69
2022/11/10 06:32:50;;;;;;;14.73;3.17;;;;;;;8.96;63.70;101324.72;4973750;28;20047;-70
2022/11/10 06:35:17;;;;;;;16.20;3.80;;;;;;;8.83;63.82;101337.47;4974292;28;20051;-70
2022/11/10 06:37:44;;;;;;;12.20;2.85;;;;;;;8.75;64.22;101335.47;4974797;28;20491;-68
2022/11/10 06:40:12;;;;;;;11.27;2.65;;;;;;;8.80;64.07;101348.44;4974708;28;20054;-69
2022/11/10 06:42:39;;;;;;;13.65;2.53;;;;;;;8.94;63.75;101347.22;4973977;28;20051;-70
2022/11/10 06:45:06;;;;;;;14.85;2.90;;;;;;;8.84;64.21;101357.88;4974731;28;20046;-69
2022/11/10 06:47:32;;;;;;;9.63;3.00;;;;;;;8.75;64.12;101362.22;4973541;28;20061;-69
2022/11/10 06:49:59;;;;;;;18.90;3.45;;;;;;;8.72;64.58;101365.16;4974384;28;20047;-69
2022/11/10 06:52:25;;;;;;;23.88;3.67;;;;;;;8.85;64.11;101378.31;4973347;28;20422;-70
2022/11/10 06:54:52;;;;;;;16.23;2.47;;;;;;;8.83;63.98;101381.13;4973509;28;20047;-70
2022/11/10 06:57:18;;;;;;;21.77;3.15;;;;;;;8.70;64.50;101393.84;4973286;28;20399;-70
2022/11/10 06:59:45;;;;;;;17.50;2.85;;;;;;;8.67;64.63;101391.44;4974124;28;20061;-70
2022/11/10 07:02:15;;;;;;;16.80;3.40;;;;;;;8.77;64.63;101399.53;4974215;28;20057;-70
2022/11/10 07:04:41;;;;;;;21.88;4.72;;;;;;;8.76;64.44;101400.50;4974059;28;20487;-69
2022/11/10 07:07:09;;;;;;;13.77;3.78;;;;;;;8.70;64.96;101407.22;4973131;28;20047;-69
2022/11/10 07:09:36;;;;;;;13.35;3.58;;;;;;;8.81;64.45;101409.81;4973768;28;20050;-70
2022/11/10 07:12:03;;;;;;;12.55;3.42;;;;;;;9.19;63.62;101413.69;4972958;28;20495;-70
2022/11/10 07:14:30;;;;;;;20.10;3.80;;;;;;;9.06;63.79;101424.63;4973222;28;20050;-70
2022/11/10 07:16:56;;;;;;;19.80;3.75;;;;;;;8.98;64.25;101429.78;4973200;28;20101;-70
2022/11/10 07:19:23;;;;;;;14.48;3.13;;;;;;;9.40;63.15;101434.22;4973211;28;20423;-68
2022/11/10 07:21:49;;;;;;;13.10;3.83;;;;;;;9.33;63.15;101428.56;4973860;28;20047;-68
2022/11/10 07:24:16;;;;;;;19.75;3.63;;;;;;;9.30;63.40;101431.50;4973332;28;20062;-68
2022/11/10 07:26:42;;;;;;;25.38;3.47;;;;;;;9.34;62.87;101441.00;4972399;28;20042;-71
2022/11/10 07:29:08;;;;;;;22.90;3.78;;;;;;;9.35;63.09;101445.34;4972901;28;20046;-71
2022/11/10 07:31:35;;;;;;;19.83;3.20;;;;;;;9.53;62.43;101450.91;4972342;28;20061;-71
2022/11/10 07:34:01;;;;;;;18.88;3.38;;;;;;;9.47;62.49;101455.00;4972722;28;20058;-70
2022/11/10 07:36:28;;;;;;;19.48;3.38;;;;;;;9.49;62.51;101461.06;4972661;28;20051;-70
2022/11/10 07:38:54;;;;;;;20.80;5.05;;;;;;;9.66;61.80;101461.41;4972051;28;20392;-71
2022/11/10 07:41:21;;;;;;;18.80;3.97;;;;;;;9.67;62.09;101463.09;4972609;28;20056;-72
2022/11/10 07:43:48;;;;;;;18.05;3.58;;;;;;;9.68;62.25;101468.34;4970846;28;20062;-71
2022/11/10 07:46:14;;;;;;;16.23;3.40;;;;;;;9.48;62.57;101471.91;4973505;28;20050;-71
2022/11/10 07:48:40;;;;;;;16.50;3.03;;;;;;;9.39;62.92;101467.38;4972124;28;20043;-71
2022/11/10 07:51:07;;;;;;;18.58;3.20;;;;;;;9.43;62.97;101477.66;4972893;28;20399;-71
2022/11/10 07:53:33;;;;;;;14.15;2.92;;;;;;;9.55;62.22;101489.16;4972044;28;20138;-70
2022/11/10 07:56:00;;;;;;;23.80;3.40;;;;;;;9.52;62.46;101494.78;4971937;28;20043;-70
2022/11/10 07:58:28;;;;;;;17.95;2.85;;;;;;;9.54;62.51;101487.44;4973006;28;20062;-68
2022/11/10 08:00:54;;;;;;;20.90;2.63;;;;;;;9.45;62.68;101489.09;4972296;28;20060;-68
2022/11/10 08:03:21;;;;;;;13.25;2.92;;;;;;;9.53;62.60;101502.66;4973533;28;20071;-68
2022/11/10 08:05:48;;;;;;;15.63;2.47;;;;;;;9.84;61.65;101499.97;4971728;28;20491;-69
2022/11/10 08:08:15;;;;;;;25.80;3.15;;;;;;;9.63;62.38;101500.03;4971833;28;20047;-70
2022/11/10 08:10:42;;;;;;;15.80;3.40;;;;;;;9.69;62.16;101502.16;4970536;28;20043;-69
2022/11/10 08:13:10;;;;;;;23.05;4.13;;;;;;;9.75;61.92;101508.81;4971044;28;20055;-70
2022/11/10 08:15:37;;;;;;;18.70;3.08;;;;;;;9.96;61.48;101508.75;4972624;28;20051;-69
2022/11/10 08:18:19;;;;;;;17.02;3.25;;;;;;;9.88;61.78;101512.09;4964827;28;20414;-69
2022/11/10 08:20:46;;;;;;;24.63;3.75;;;;;;;9.97;61.26;101510.44;4982457;28;20047;-69
2022/11/10 08:23:13;;;;;;;19.35;3.33;;;;;;;9.99;61.38;101522.72;4971709;28;20061;-70
2022/11/10 08:25:40;;;;;;;19.60;3.83;;;;;;;10.17;60.53;101519.38;4971842;28;20048;-68
2022/11/10 08:28:08;;;;;;;14.68;2.67;;;;;;;10.08;60.68;101517.53;4972493;28;20069;-70
2022/11/10 08:30:37;;;;;;;18.80;3.20;;;;;;;9.87;61.14;101520.28;4972092;28;20083;-68
2022/11/10 08:33:05;;;;;;;20.30;3.75;;;;;;;10.16;60.63;101523.03;4971640;28;20051;-69
2022/11/10 08:35:36;;;;;;;20.92;3.00;;;;;;;10.48;59.69;101522.81;4971729;28;20070;-69
2022/11/10 08:38:12;;;;;;;14.10;3.53;;;;;;;10.85;58.95;101533.72;4970304;28;20051;-69
2022/11/10 08:40:39;;;;;;;19.00;3.45;;;;;;;10.73;58.83;101537.53;4971559;28;20061;-68
2022/11/10 08:43:07;;;;;;;30.65;4.00;;;;;;;10.48;59.64;101536.22;4972278;28;20054;-68
2022/11/10 08:45:35;;;;;;;18.20;2.70;;;;;;;10.86;58.36;101545.28;4972305;28;20054;-70
2022/11/10 08:48:04;;;;;;;16.70;3.75;;;;;;;10.76;58.33;101548.00;4970749;28;20047;-69
2022/11/10 08:50:31;;;;;;;17.00;3.75;;;;;;;10.92;58.07;101550.09;4972353;28;20062;-70
2022/11/10 08:53:02;;;;;;;13.25;3.35;;;;;;;11.02;57.78;101560.84;4971296;28;20042;-69
2022/11/10 08:55:29;;;;;;;19.60;4.10;;;;;;;10.70;58.53;101562.81;4972263;28;20059;-69
2022/11/10 08:58:00;;;;;;;18.85;3.33;;;;;;;10.76;58.51;101574.84;4971439;28;20054;-70
2022/11/10 09:00:27;;;;;;;21.60;3.67;;;;;;;10.66;58.70;101582.03;4971247;28;20058;-71
2022/11/10 09:02:55;;;;;;;27.52;4.43;;;;;;;10.77;58.46;101578.38;4971605;28;20450;-70
2022/11/10 09:05:22;;;;;;;19.20;3.60;;;;;;;10.89;58.25;101588.81;4970895;28;20059;-69
2022/11/10 09:07:49;;;;;;;20.25;2.97;;;;;;;11.22;57.23;101592.91;4971825;28;20513;-69
2022/11/10 09:10:16;;;;;;;18.80;3.22;;;;;;;11.19;57.36;101595.03;4971927;28;20051;-70
2022/11/10 09:12:42;;;;;;;22.05;3.75;;;;;;;11.40;56.82;101598.38;4971173;28;20053;-70
2022/11/10 09:15:10;;;;;;;18.52;3.55;;;;;;;11.56;56.42;101603.16;4971349;28;20519;-70
2022/11/10 09:17:38;;;;;;;15.82;3.35;;;;;;;11.86;55.90;101604.81;4970773;28;20043;-70
2022/11/10 09:20:07;;;;;;;15.02;2.88;;;;;;;12.36;54.22;101615.19;4971462;28;20121;-70
2022/11/10 09:22:35;;;;;;;25.00;4.00;;;;;;;12.50;53.72;101613.84;4971266;28;20062;-69
2022/11/10 09:25:03;;;;;;;13.73;3.80;;;;;;;11.92;55.11;101620.34;4971156;28;20047;-69
2022/11/10 09:27:29;;;;;;;21.13;3.42;;;;;;;12.39;53.76;101614.88;4970930;28;20513;-69
2022/11/10 09:29:56;;;;;;;15.70;3.42;;;;;;;12.54;53.34;101612.53;4970684;28;20051;-69
2022/11/10 09:32:22;;;;;;;14.38;2.65;;;;;;;12.62;53.42;101617.16;4970950;28;20419;-71
2022/11/10 09:34:49;;;;;;;19.23;3.30;;;;;;;12.97;52.46;101616.38;4972123;28;20046;-69
2022/11/10 09:37:18;;;;;;;18.73;3.60;;;;;;;12.94;52.14;101615.81;4970801;28;20051;-70
2022/11/10 09:39:44;;;;;;;19.08;3.42;;;;;;;12.87;52.58;101623.69;4971887;28;20042;-70
2022/11/10 09:42:35;;;;;;;26.35;3.92;;;;;;;13.67;50.56;101624.50;4971124;28;20059;-71
2022/11/10 09:45:14;;;;;;;18.48;3.65;;;;;;;13.41;51.02;101629.03;4970420;28;20053;-70
2022/11/10 09:47:47;;;;;;;17.20;2.70;;;;;;;14.42;48.42;101642.78;4970941;28;20049;-70
2022/11/10 09:50:34;;;;;;;12.95;2.58;;;;;;;14.74;47.91;101640.22;4951564;28;20491;-71
2022/11/10 09:53:01;;;;;;;14.27;3.13;;;;;;;15.00;46.92;101644.66;4950943;28;20044;-70
2022/11/10 09:55:42;;;;;;;17.45;3.55;;;;;;;14.83;47.15;101645.63;4957310;28;20050;-69
2022/11/10 09:58:12;;;;;;;23.03;4.07;;;;;;;14.53;47.91;101639.78;4970893;28;20050;-70
2022/11/10 10:00:45;;;;;;;22.52;4.00;;;;;;;14.47;47.94;101645.84;4969368;28;20140;-70
2022/11/10 10:03:18;;;;;;;17.00;3.30;;;;;;;14.26;47.91;101647.13;4969936;28;20047;-69
2022/11/10 10:06:02;;;;;;;14.93;3.28;;;;;;;14.50;47.71;101637.44;4964318;28;20403;-72
2022/11/10 10:08:48;;;;;;;16.90;3.80;;;;;;;14.16;48.46;101645.56;4969123;28;20047;-70
2022/11/10 10:11:42;;;;;;;21.55;3.10;;;;;;;14.29;48.12;101646.78;4970885;28;20043;-71
2022/11/10 10:14:23;;;;;;;22.58;3.85;;;;;;;13.81;49.26;101648.22;4968914;28;20483;-72
2022/11/10 10:17:01;;;;;;;14.18;2.90;;;;;;;14.01;49.18;101639.88;4969841;28;20049;-69
2022/11/10 10:19:55;;;;;;;20.38;3.80;;;;;;;13.82;49.15;101639.13;4971150;28;20119;-69
2022/11/10 10:22:52;;;;;;;12.68;2.60;;;;;;;13.66;49.68;101648.91;4970744;28;20059;-69
2022/11/10 10:25:23;;;;;;;14.77;2.92;;;;;;;14.60;48.09;101638.13;4969636;28;20063;-71
2022/11/10 10:28:15;;;;;;;10.50;2.63;;;;;;;14.84;46.99;101647.31;4970129;28;20049;-69
2022/11/10 10:30:42;;;;;;;15.05;2.97;;;;;;;14.34;47.95;101649.00;4966868;28;20050;-70
2022/11/10 10:33:14;;;;;;;22.10;3.58;;;;;;;14.07;48.76;101641.94;4973740;28;20130;-69
2022/11/10 10:35:42;;;;;;;18.75;3.40;;;;;;;14.06;48.82;101649.19;4973131;28;20415;-70
2022/11/10 10:38:36;;;;;;;20.30;3.33;;;;;;;14.38;48.38;101653.06;4972921;28;20046;-70
2022/11/10 10:41:22;;;;;;;17.35;3.40;;;;;;;14.75;47.21;101654.56;4967547;28;20058;-71
2022/11/10 10:43:53;;;;;;;15.73;3.03;;;;;;;14.22;47.88;101661.94;4973170;28;20046;-71
2022/11/10 10:46:25;;;;;;;13.07;3.05;;;;;;;14.08;48.60;101658.97;4974696;28;20491;-71
2022/11/10 10:49:07;;;;;;;12.55;3.00;;;;;;;13.29;50.63;101652.69;4973387;28;20138;-71
2022/11/10 10:52:15;;;;;;;18.02;3.05;;;;;;;13.09;51.02;101655.53;4973822;28;20066;-71
2022/11/10 10:54:42;;;;;;;22.17;3.53;;;;;;;12.66;52.63;101669.72;4974118;28;20050;-71
2022/11/10 10:57:28;;;;;;;22.05;4.53;;;;;;;12.55;53.09;101670.75;4973153;28;20042;-71
2022/11/10 11:00:29;;;;;;;19.63;3.53;;;;;;;12.69;52.76;101674.78;4974097;28;20430;-69
2022/11/10 11:03:25;;;;;;;15.07;2.90;;;;;;;12.98;52.06;101666.53;4933564;29;20056;-71
2022/11/10 11:06:02;;;;;;;13.05;2.90;;;;;;;13.10;51.61;101664.47;4932241;29;20051;-71
2022/11/10 11:08:28;;;;;;;11.88;2.83;;;;;;;13.58;50.64;101673.97;4932817;29;20051;-71
2022/11/10 11:10:55;;;;;;;16.30;3.05;;;;;;;14.04;49.54;101670.09;4933110;29;20052;-70
2022/11/10 11:13:26;;;;;;;15.93;3.17;;;;;;;14.96;47.46;101665.75;4932676;29;20051;-70
2022/11/10 11:16:11;;;;;;;19.55;4.15;;;;;;;15.23;46.64;101659.22;4933426;29;20052;-70
2022/11/10 11:18:39;;;;;;;16.63;4.20;;;;;;;15.36;46.22;101660.53;4931916;29;20054;-69
2022/11/10 11:21:41;;;;;;;22.73;6.15;;;;;;;16.49;43.94;101664.03;4932984;29;20523;-71
2022/11/10 11:24:08;;;;;;;14.07;3.17;;;;;;;16.66;43.07;101662.97;4922542;29;20048;-69
2022/11/10 11:26:45;;;;;;;16.50;3.20;;;;;;;16.51;43.19;101667.47;4932414;29;20043;-69
2022/11/10 11:29:17;;;;;;;12.93;3.15;;;;;;;15.80;44.29;101669.16;4933078;29;20094;-70
2022/11/10 11:31:56;;;;;;;14.05;3.05;;;;;;;15.27;45.86;101673.22;4932185;29;20455;-69
2022/11/10 11:34:40;;;;;;;15.98;3.65;;;;;;;16.07;44.19;101662.50;4927243;29;20054;-71
2022/11/10 11:37:06;;;;;;;13.10;2.60;;;;;;;16.64;42.94;101673.16;4955121;28;20419;-70
2022/11/10 11:39:55;;;;;;;15.68;3.17;;;;;;;16.47;42.88;101679.66;4965253;28;20133;-69
2022/11/10 11:42:32;;;;;;;17.40;3.08;;;;;;;16.24;43.00;101674.13;4972691;28;20052;-68
2022/11/10 11:45:25;;;;;;;14.43;2.60;;;;;;;16.20;43.37;101672.81;4971895;28;20042;-70
2022/11/10 11:48:18;;;;;;;17.35;3.10;;;;;;;16.24;43.84;101673.31;4972445;28;20054;-70
2022/11/10 11:50:54;;;;;;;18.98;3.28;;;;;;;16.40;42.96;101676.78;4964474;28;20054;-70
2022/11/10 11:53:26;;;;;;;15.48;3.35;;;;;;;14.86;45.95;101692.06;4972647;28;20050;-69